Time;durP1;ratioP1;P1;durP2;ratioP2;P2;SDS_P1;SDS_P2;PMS_P1;PMS_P2;Temp;Humidity;BMP_temperature;BMP_pressure;BME280_temperature;BME280_humidity;BME280_pressure;Samples;Min_cycle;Max_cycle;Signal;HPM_P1;HPM_P2
2022/01/18 00:00:03;;;;;;;0.20;0.20;;;;;;;;;;5135878;27;20209;-72
2022/01/18 00:02:30;;;;;;;0.20;0.20;;;;;;;;;;5137584;27;20205;-72
2022/01/18 00:04:57;;;;;;;0.20;0.20;;;;;;;;;;5127650;27;20247;-72
2022/01/18 00:07:24;;;;;;;0.20;0.20;;;;;;;;;;5146271;27;20223;-71
2022/01/18 00:09:52;;;;;;;0.20;0.20;;;;;;;;;;5146252;27;20226;-71
2022/01/18 00:12:43;;;;;;;0.30;0.30;;;;;;;;;;5140948;27;20198;-72
2022/01/18 00:15:29;;;;;;;0.20;0.20;;;;;;;;;;5127019;27;20232;-72
2022/01/18 00:18:06;;;;;;;0.20;0.20;;;;;;;;;;5135482;27;20206;-72
2022/01/18 00:20:45;;;;;;;0.20;0.20;;;;;;;;;;5129976;27;20527;-72
2022/01/18 00:23:11;;;;;;;0.10;0.10;;;;;;;;;;5125809;28;20202;-70
2022/01/18 00:25:40;;;;;;;0.20;0.20;;;;;;;;;;5137114;27;20197;-72
2022/01/18 00:28:07;;;;;;;0.20;0.20;;;;;;;;;;5138510;27;20222;-72
2022/01/18 00:30:54;;;;;;;0.20;0.20;;;;;;;;;;5140463;27;20202;-71
2022/01/18 00:33:21;;;;;;;0.20;0.20;;;;;;;;;;5145937;27;20198;-72
2022/01/18 00:35:57;;;;;;;0.20;0.20;;;;;;;;;;5146122;27;20208;-71
2022/01/18 00:38:31;;;;;;;0.20;0.20;;;;;;;;;;5146029;27;20533;-72
2022/01/18 00:40:58;;;;;;;0.20;0.20;;;;;;;;;;5144348;27;20220;-71
2022/01/18 00:43:24;;;;;;;0.20;0.20;;;;;;;;;;5130279;27;20229;-72
2022/01/18 00:45:51;;;;;;;0.20;0.20;;;;;;;;;;5144435;27;20209;-71
2022/01/18 00:48:18;;;;;;;0.20;0.20;;;;;;;;;;5143816;27;20585;-72
2022/01/18 00:50:44;;;;;;;0.20;0.20;;;;;;;;;;5138813;27;20225;-72
2022/01/18 00:53:15;;;;;;;0.20;0.20;;;;;;;;;;5136158;27;20221;-72
2022/01/18 00:55:51;;;;;;;0.20;0.20;;;;;;;;;;5125139;28;20386;-72
2022/01/18 00:58:17;;;;;;;0.20;0.20;;;;;;;;;;5125254;28;20411;-72
2022/01/18 01:00:43;;;;;;;0.20;0.20;;;;;;;;;;5125304;28;20206;-71
2022/01/18 01:03:10;;;;;;;0.20;0.20;;;;;;;;;;5125185;28;20266;-71
2022/01/18 01:05:36;;;;;;;0.20;0.20;;;;;;;;;;5125086;28;20458;-71
2022/01/18 01:08:02;;;;;;;0.20;0.20;;;;;;;;;;5124569;28;20449;-71
2022/01/18 01:10:30;;;;;;;0.20;0.20;;;;;;;;;;5124867;28;20222;-71
2022/01/18 01:12:57;;;;;;;0.47;0.47;;;;;;;;;;5125056;28;20240;-72
2022/01/18 01:15:25;;;;;;;0.93;0.93;;;;;;;;;;5124808;28;20210;-72
2022/01/18 01:18:06;;;;;;;0.20;0.20;;;;;;;;;;5124691;28;20213;-72
2022/01/18 01:34:38;;;;;;;0.20;0.20;;;;;;;;;;5144883;27;20218;-72
2022/01/18 01:42:56;;;;;;;0.20;0.20;;;;;;;;;;5144826;27;20214;-72
2022/01/18 01:45:24;;;;;;;0.20;0.20;;;;;;;;;;5144938;27;20362;-71
2022/01/18 01:47:52;;;;;;;0.20;0.20;;;;;;;;;;5144475;27;20232;-72
2022/01/18 01:50:20;;;;;;;0.20;0.20;;;;;;;;;;5144953;27;20228;-72
2022/01/18 01:52:47;;;;;;;0.20;0.20;;;;;;;;;;5141169;27;20517;-72
2022/01/18 01:55:13;;;;;;;0.20;0.20;;;;;;;;;;5124279;28;20247;-71
2022/01/18 01:57:41;;;;;;;0.20;0.20;;;;;;;;;;5123871;28;20201;-71
2022/01/18 02:00:09;;;;;;;0.20;0.20;;;;;;;;;;5123864;28;20221;-71
2022/01/18 02:02:35;;;;;;;0.20;0.20;;;;;;;;;;5124115;28;20202;-72
2022/01/18 02:05:02;;;;;;;0.20;0.20;;;;;;;;;;5124081;28;20244;-72
2022/01/18 02:07:28;;;;;;;0.20;0.20;;;;;;;;;;5124106;28;20243;-71
2022/01/18 02:09:54;;;;;;;0.20;0.20;;;;;;;;;;5128520;27;20240;-72
2022/01/18 02:12:21;;;;;;;0.20;0.20;;;;;;;;;;5144648;27;20292;-72
2022/01/18 02:14:54;;;;;;;0.20;0.20;;;;;;;;;;5144491;27;20212;-72
2022/01/18 02:22:50;;;;;;;0.20;0.20;;;;;;;;;;5144224;27;20192;-72
2022/01/18 02:25:17;;;;;;;0.20;0.20;;;;;;;;;;5144064;27;20205;-72
2022/01/18 02:27:43;;;;;;;0.20;0.20;;;;;;;;;;5144319;27;20202;-71
2022/01/18 02:30:10;;;;;;;0.20;0.20;;;;;;;;;;5144083;27;20208;-72
2022/01/18 02:32:36;;;;;;;0.20;0.20;;;;;;;;;;5143903;27;20205;-71
2022/01/18 02:35:02;;;;;;;0.20;0.20;;;;;;;;;;5143952;27;20280;-72
2022/01/18 02:37:30;;;;;;;0.20;0.20;;;;;;;;;;5143995;27;20202;-71
2022/01/18 02:39:57;;;;;;;0.20;0.20;;;;;;;;;;5143969;27;20201;-71
2022/01/18 02:42:27;;;;;;;0.20;0.20;;;;;;;;;;5144106;27;20242;-72
2022/01/18 02:44:54;;;;;;;0.20;0.20;;;;;;;;;;5144068;27;20381;-72
2022/01/18 02:47:21;;;;;;;0.20;0.20;;;;;;;;;;5144064;28;20197;-71
2022/01/18 02:49:48;;;;;;;0.20;0.20;;;;;;;;;;5144120;27;20225;-72
2022/01/18 02:52:14;;;;;;;0.20;0.20;;;;;;;;;;5143798;27;20205;-72
2022/01/18 02:54:42;;;;;;;0.20;0.20;;;;;;;;;;5144091;27;20508;-72
2022/01/18 02:57:12;;;;;;;0.20;0.20;;;;;;;;;;5144116;27;20212;-72
2022/01/18 02:59:46;;;;;;;0.20;0.20;;;;;;;;;;5143969;27;20257;-72
2022/01/18 03:05:04;;;;;;;0.20;0.20;;;;;;;;;;5143838;28;20219;-71
2022/01/18 03:07:30;;;;;;;0.20;0.20;;;;;;;;;;5144027;27;20206;-72
2022/01/18 03:09:58;;;;;;;0.20;0.20;;;;;;;;;;5143588;27;20245;-71
2022/01/18 03:12:24;;;;;;;0.20;0.20;;;;;;;;;;5134376;27;20594;-71
2022/01/18 03:14:50;;;;;;;0.20;0.20;;;;;;;;;;5122991;28;20202;-72
2022/01/18 03:17:17;;;;;;;0.20;0.20;;;;;;;;;;5123753;28;20227;-71
2022/01/18 03:19:43;;;;;;;0.20;0.20;;;;;;;;;;5123268;28;20197;-72
2022/01/18 03:22:09;;;;;;;0.20;0.20;;;;;;;;;;5122940;28;20243;-71
2022/01/18 03:24:48;;;;;;;0.20;0.20;;;;;;;;;;5122904;28;20201;-72
2022/01/18 03:30:13;;;;;;;0.20;0.20;;;;;;;;;;5081675;28;20229;-70
2022/01/18 03:32:39;;;;;;;0.20;0.20;;;;;;;;;;5116442;28;20204;-71
2022/01/18 03:35:07;;;;;;;0.20;0.20;;;;;;;;;;5126634;28;20243;-70
2022/01/18 03:37:33;;;;;;;0.20;0.20;;;;;;;;;;5126565;28;20254;-71
2022/01/18 03:39:59;;;;;;;0.20;0.20;;;;;;;;;;5129507;27;20239;-71
2022/01/18 03:42:40;;;;;;;0.20;0.20;;;;;;;;;;5128889;27;20211;-71
2022/01/18 03:45:08;;;;;;;0.20;0.20;;;;;;;;;;5139289;27;20197;-71
2022/01/18 03:47:34;;;;;;;0.20;0.20;;;;;;;;;;5146690;27;20227;-70
2022/01/18 03:50:01;;;;;;;0.20;0.20;;;;;;;;;;5140606;27;20221;-71
2022/01/18 03:52:28;;;;;;;0.20;0.20;;;;;;;;;;5141140;27;20201;-71
2022/01/18 03:54:55;;;;;;;0.20;0.20;;;;;;;;;;5143169;27;20560;-72
2022/01/18 03:57:21;;;;;;;0.20;0.20;;;;;;;;;;5140564;27;20497;-71
2022/01/18 03:59:48;;;;;;;0.20;0.20;;;;;;;;;;5140856;27;20231;-71
2022/01/18 04:02:15;;;;;;;0.20;0.20;;;;;;;;;;5146088;27;20266;-72
2022/01/18 04:04:41;;;;;;;0.20;0.20;;;;;;;;;;5131184;27;20205;-71
2022/01/18 04:07:08;;;;;;;0.20;0.20;;;;;;;;;;5134885;27;20465;-72
2022/01/18 04:09:35;;;;;;;0.20;0.20;;;;;;;;;;5131459;27;20521;-72
2022/01/18 04:12:01;;;;;;;0.20;0.20;;;;;;;;;;5135961;27;20204;-71
2022/01/18 04:14:27;;;;;;;0.20;0.20;;;;;;;;;;5130478;27;20415;-71
2022/01/18 04:17:04;;;;;;;0.20;0.20;;;;;;;;;;5134030;27;20238;-71
2022/01/18 04:27:50;;;;;;;0.20;0.20;;;;;;;;;;5125771;28;20218;-71
2022/01/18 04:30:16;;;;;;;0.20;0.20;;;;;;;;;;5125787;28;20242;-72
2022/01/18 04:32:44;;;;;;;0.20;0.20;;;;;;;;;;5125889;28;20206;-72
2022/01/18 04:35:10;;;;;;;0.20;0.20;;;;;;;;;;5125872;28;20280;-71
2022/01/18 04:37:37;;;;;;;0.20;0.20;;;;;;;;;;5125538;28;20247;-71
2022/01/18 04:40:11;;;;;;;0.20;0.20;;;;;;;;;;5125733;28;20202;-72
2022/01/18 04:42:48;;;;;;;0.20;0.20;;;;;;;;;;5124676;27;20197;-71
2022/01/18 04:50:44;;;;;;;0.20;0.20;;;;;;;;;;5145902;27;20223;-71
2022/01/18 04:53:10;;;;;;;0.20;0.20;;;;;;;;;;5145753;27;20201;-72
2022/01/18 04:55:36;;;;;;;0.20;0.20;;;;;;;;;;5145903;27;20201;-72
2022/01/18 04:58:03;;;;;;;0.20;0.20;;;;;;;;;;5145858;27;20426;-72
2022/01/18 05:00:29;;;;;;;0.20;0.20;;;;;;;;;;5145431;27;20202;-72
2022/01/18 05:02:55;;;;;;;0.20;0.20;;;;;;;;;;5145640;27;20201;-71
2022/01/18 05:05:25;;;;;;;0.20;0.20;;;;;;;;;;5145403;27;20205;-71
2022/01/18 05:07:52;;;;;;;0.20;0.20;;;;;;;;;;5145372;27;20274;-72
2022/01/18 05:10:20;;;;;;;0.20;0.20;;;;;;;;;;5145484;27;20232;-72
2022/01/18 05:12:49;;;;;;;0.20;0.20;;;;;;;;;;5145676;27;20224;-71
2022/01/18 05:15:36;;;;;;;0.13;0.13;;;;;;;;;;5145268;27;20208;-71
2022/01/18 05:21:08;;;;;;;0.20;0.20;;;;;;;;;;5145271;27;20218;-72
2022/01/18 05:23:34;;;;;;;0.20;0.20;;;;;;;;;;5145830;27;20485;-71
2022/01/18 05:26:01;;;;;;;0.20;0.20;;;;;;;;;;5145366;27;20243;-71
2022/01/18 05:28:30;;;;;;;0.20;0.20;;;;;;;;;;5145274;27;20250;-71
2022/01/18 05:30:56;;;;;;;0.20;0.20;;;;;;;;;;5144967;27;20233;-72
2022/01/18 05:33:22;;;;;;;0.20;0.20;;;;;;;;;;5145304;27;20201;-71
2022/01/18 05:35:50;;;;;;;0.20;0.20;;;;;;;;;;5145832;27;20202;-72
2022/01/18 05:38:16;;;;;;;0.17;0.17;;;;;;;;;;5145220;27;20202;-72
2022/01/18 05:40:43;;;;;;;0.20;0.20;;;;;;;;;;5145216;27;20219;-71
2022/01/18 05:43:09;;;;;;;0.20;0.20;;;;;;;;;;5144703;27;20201;-71
2022/01/18 05:45:35;;;;;;;0.20;0.20;;;;;;;;;;5144962;27;20202;-70
2022/01/18 05:48:02;;;;;;;0.20;0.20;;;;;;;;;;5145086;27;20206;-71
2022/01/18 05:50:28;;;;;;;0.20;0.20;;;;;;;;;;5144842;27;20460;-71
2022/01/18 05:52:56;;;;;;;0.20;0.20;;;;;;;;;;5144969;27;20259;-71
2022/01/18 05:55:22;;;;;;;0.20;0.20;;;;;;;;;;5144645;27;20201;-71
2022/01/18 05:57:48;;;;;;;0.20;0.20;;;;;;;;;;5144916;27;20214;-72
2022/01/18 06:00:21;;;;;;;0.20;0.20;;;;;;;;;;5144440;27;20229;-70
2022/01/18 06:02:59;;;;;;;0.20;0.20;;;;;;;;;;5144431;27;20194;-71
2022/01/18 06:08:08;;;;;;;0.20;0.20;;;;;;;;;;5121358;27;20200;-71
2022/01/18 06:10:34;;;;;;;0.20;0.20;;;;;;;;;;5144550;27;20225;-72
2022/01/18 06:13:02;;;;;;;0.20;0.20;;;;;;;;;;5144675;27;20250;-71
2022/01/18 06:15:29;;;;;;;0.20;0.20;;;;;;;;;;5144573;27;20204;-72
2022/01/18 06:17:55;;;;;;;0.20;0.20;;;;;;;;;;5144222;27;20534;-71
2022/01/18 06:20:22;;;;;;;0.20;0.20;;;;;;;;;;5144271;27;20381;-71
2022/01/18 06:22:51;;;;;;;0.20;0.20;;;;;;;;;;5144525;27;20232;-71
2022/01/18 06:25:19;;;;;;;0.20;0.20;;;;;;;;;;5144382;27;20209;-72
2022/01/18 06:27:45;;;;;;;0.20;0.20;;;;;;;;;;5144369;27;20208;-72
2022/01/18 06:30:11;;;;;;;0.20;0.20;;;;;;;;;;5143947;27;20221;-71
2022/01/18 06:32:38;;;;;;;0.20;0.20;;;;;;;;;;5144351;27;20242;-72
2022/01/18 06:35:05;;;;;;;0.20;0.20;;;;;;;;;;5144236;27;20205;-71
2022/01/18 06:37:31;;;;;;;0.20;0.20;;;;;;;;;;5144225;27;20201;-70
2022/01/18 06:39:58;;;;;;;0.20;0.20;;;;;;;;;;5144095;28;20198;-71
2022/01/18 06:42:26;;;;;;;0.20;0.20;;;;;;;;;;5143976;27;20202;-72
2022/01/18 06:44:55;;;;;;;0.20;0.20;;;;;;;;;;5144206;27;20216;-72
2022/01/18 06:47:21;;;;;;;0.20;0.20;;;;;;;;;;5144170;27;20208;-72
2022/01/18 06:49:47;;;;;;;0.20;0.20;;;;;;;;;;5143942;27;20217;-71
2022/01/18 06:52:13;;;;;;;0.20;0.20;;;;;;;;;;5144081;27;20584;-72
2022/01/18 06:54:40;;;;;;;0.20;0.20;;;;;;;;;;5144003;27;20200;-72
2022/01/18 06:57:06;;;;;;;0.20;0.20;;;;;;;;;;5125956;27;20209;-72
2022/01/18 06:59:35;;;;;;;0.20;0.20;;;;;;;;;;5123609;28;20198;-72
2022/01/18 07:02:01;;;;;;;0.20;0.20;;;;;;;;;;5123597;28;20296;-72
2022/01/18 07:04:27;;;;;;;0.20;0.20;;;;;;;;;;5128972;28;20222;-71
2022/01/18 07:06:53;;;;;;;0.20;0.20;;;;;;;;;;5138175;27;20238;-71
2022/01/18 07:09:22;;;;;;;0.20;0.20;;;;;;;;;;5141829;27;20222;-72
2022/01/18 07:11:49;;;;;;;0.20;0.20;;;;;;;;;;5136389;27;20247;-72
2022/01/18 07:14:15;;;;;;;0.20;0.20;;;;;;;;;;5135361;27;20235;-72
2022/01/18 07:16:43;;;;;;;0.20;0.20;;;;;;;;;;5130005;27;20206;-71
2022/01/18 07:19:09;;;;;;;0.20;0.20;;;;;;;;;;5127038;28;20221;-73
2022/01/18 07:21:35;;;;;;;0.20;0.20;;;;;;;;;;5127043;28;20202;-74
2022/01/18 07:24:06;;;;;;;0.20;0.20;;;;;;;;;;5127404;28;20204;-72
2022/01/18 07:26:32;;;;;;;0.20;0.20;;;;;;;;;;5127139;28;20194;-73
2022/01/18 07:28:58;;;;;;;0.43;0.43;;;;;;;;;;5127203;27;20396;-74
2022/01/18 07:31:25;;;;;;;0.20;0.20;;;;;;;;;;5139341;27;20497;-74
2022/01/18 07:33:52;;;;;;;0.20;0.20;;;;;;;;;;5147517;27;20205;-71
2022/01/18 07:36:18;;;;;;;0.20;0.20;;;;;;;;;;5141517;27;20247;-71
2022/01/18 07:38:45;;;;;;;0.20;0.20;;;;;;;;;;5137906;27;20255;-71
2022/01/18 07:41:12;;;;;;;0.20;0.20;;;;;;;;;;5126660;27;20249;-72
2022/01/18 07:43:40;;;;;;;0.20;0.20;;;;;;;;;;5131747;27;20237;-72
2022/01/18 07:46:06;;;;;;;0.20;0.20;;;;;;;;;;5141040;27;20202;-71
2022/01/18 07:48:33;;;;;;;0.10;0.10;;;;;;;;;;5126749;27;20202;-72
2022/01/18 07:51:00;;;;;;;0.20;0.20;;;;;;;;;;5135330;27;20248;-71
2022/01/18 07:53:27;;;;;;;0.50;0.50;;;;;;;;;;5131288;27;20485;-72
2022/01/18 07:55:53;;;;;;;0.13;0.13;;;;;;;;;;5137407;27;20541;-73
2022/01/18 07:58:20;;;;;;;0.20;0.20;;;;;;;;;;5146844;27;20230;-71
2022/01/18 08:00:47;;;;;;;1.57;1.47;;;;;;;;;;5147314;27;20341;-72
2022/01/18 08:03:13;;;;;;;0.20;0.20;;;;;;;;;;5147179;27;20272;-71
2022/01/18 08:05:40;;;;;;;0.10;0.10;;;;;;;;;;5146996;27;20201;-72
2022/01/18 08:08:09;;;;;;;0.20;0.20;;;;;;;;;;5147044;27;20202;-72
2022/01/18 08:10:35;;;;;;;0.17;0.17;;;;;;;;;;5146349;27;20221;-71
2022/01/18 08:13:03;;;;;;;0.20;0.20;;;;;;;;;;5146857;27;20213;-72
2022/01/18 08:15:36;;;;;;;0.17;0.17;;;;;;;;;;5146638;27;20246;-72
2022/01/18 08:18:03;;;;;;;0.10;0.10;;;;;;;;;;5145346;27;20217;-70
2022/01/18 08:20:29;;;;;;;0.20;0.20;;;;;;;;;;5146600;27;20238;-71
2022/01/18 08:22:55;;;;;;;0.10;0.10;;;;;;;;;;5131772;27;20432;-70
2022/01/18 08:25:23;;;;;;;0.20;0.20;;;;;;;;;;5125898;28;20501;-71
2022/01/18 08:27:50;;;;;;;0.20;0.20;;;;;;;;;;5130390;27;20425;-72
2022/01/18 08:30:19;;;;;;;0.20;0.20;;;;;;;;;;5146421;27;20225;-71
2022/01/18 08:32:46;;;;;;;0.20;0.20;;;;;;;;;;5146495;27;20201;-71
2022/01/18 08:35:12;;;;;;;0.20;0.20;;;;;;;;;;5144943;27;20451;-71
2022/01/18 08:37:38;;;;;;;0.20;0.20;;;;;;;;;;5146313;27;20393;-71
2022/01/18 08:40:05;;;;;;;0.17;0.17;;;;;;;;;;5135997;27;20244;-71
2022/01/18 08:42:33;;;;;;;0.20;0.20;;;;;;;;;;5140445;27;20261;-72
2022/01/18 08:45:00;;;;;;;0.20;0.20;;;;;;;;;;5125560;28;20207;-71
2022/01/18 08:47:27;;;;;;;0.20;0.20;;;;;;;;;;5135471;27;20481;-72
2022/01/18 08:49:53;;;;;;;0.10;0.10;;;;;;;;;;5136806;27;20208;-71
2022/01/18 08:52:20;;;;;;;0.10;0.10;;;;;;;;;;5141015;27;20376;-73
2022/01/18 08:54:46;;;;;;;0.10;0.10;;;;;;;;;;5125408;28;20506;-72
2022/01/18 08:57:14;;;;;;;0.10;0.10;;;;;;;;;;5125370;28;20557;-71
2022/01/18 08:59:42;;;;;;;0.10;0.10;;;;;;;;;;5125062;28;20206;-71
2022/01/18 09:02:09;;;;;;;0.20;0.20;;;;;;;;;;5125063;28;20211;-70
2022/01/18 09:04:36;;;;;;;0.20;0.20;;;;;;;;;;5125673;27;20271;-70
2022/01/18 09:07:07;;;;;;;0.20;0.20;;;;;;;;;;5133830;27;20406;-72
2022/01/18 09:09:33;;;;;;;0.20;0.20;;;;;;;;;;5124982;27;20540;-73
2022/01/18 09:12:00;;;;;;;0.10;0.10;;;;;;;;;;5124677;28;20231;-72
2022/01/18 09:14:26;;;;;;;0.20;0.20;;;;;;;;;;5124995;28;20203;-71
2022/01/18 09:16:54;;;;;;;0.10;0.10;;;;;;;;;;5132351;27;20549;-72
2022/01/18 09:19:20;;;;;;;0.10;0.10;;;;;;;;;;5145196;27;20244;-72
2022/01/18 09:21:48;;;;;;;0.20;0.20;;;;;;;;;;5145537;27;20316;-72
2022/01/18 09:24:15;;;;;;;0.20;0.20;;;;;;;;;;5145503;27;20203;-71
2022/01/18 09:26:42;;;;;;;0.20;0.20;;;;;;;;;;5145130;27;20210;-72
2022/01/18 09:29:10;;;;;;;0.10;0.10;;;;;;;;;;5144621;27;20270;-72
2022/01/18 09:31:36;;;;;;;0.10;0.10;;;;;;;;;;5145691;27;20230;-73
2022/01/18 09:34:04;;;;;;;0.10;0.10;;;;;;;;;;5144836;27;20204;-71
2022/01/18 09:36:31;;;;;;;0.20;0.20;;;;;;;;;;5144943;27;20200;-73
2022/01/18 09:38:57;;;;;;;0.20;0.20;;;;;;;;;;5145041;27;20211;-72
2022/01/18 09:41:27;;;;;;;0.10;0.10;;;;;;;;;;5135955;27;20231;-72
2022/01/18 09:43:54;;;;;;;0.10;0.10;;;;;;;;;;5124476;28;20560;-72
2022/01/18 09:46:20;;;;;;;0.20;0.20;;;;;;;;;;5124421;28;20214;-72
2022/01/18 09:48:46;;;;;;;0.10;0.10;;;;;;;;;;5124155;28;20208;-71
2022/01/18 09:51:14;;;;;;;0.10;0.10;;;;;;;;;;5124215;28;20266;-71
2022/01/18 09:53:40;;;;;;;0.10;0.10;;;;;;;;;;5124264;28;20255;-73
2022/01/18 09:56:07;;;;;;;0.10;0.10;;;;;;;;;;5123870;28;20246;-72
2022/01/18 09:58:33;;;;;;;0.10;0.10;;;;;;;;;;5124059;28;20248;-72
2022/01/18 10:00:59;;;;;;;0.10;0.10;;;;;;;;;;5124016;27;20246;-70
2022/01/18 10:03:26;;;;;;;0.10;0.10;;;;;;;;;;5123911;28;20226;-71
2022/01/18 10:05:53;;;;;;;0.10;0.10;;;;;;;;;;5123849;28;20204;-71
2022/01/18 10:08:21;;;;;;;0.10;0.10;;;;;;;;;;5123421;28;20206;-73
2022/01/18 10:10:48;;;;;;;0.10;0.10;;;;;;;;;;5123491;28;20341;-72
2022/01/18 10:13:18;;;;;;;0.20;0.20;;;;;;;;;;5123768;28;20294;-72
2022/01/18 10:15:58;;;;;;;0.20;0.20;;;;;;;;;;5123446;28;20209;-72
2022/01/18 10:18:31;;;;;;;0.10;0.10;;;;;;;;;;5123336;28;20342;-71
2022/01/18 10:20:59;;;;;;;0.10;0.10;;;;;;;;;;5123593;27;20505;-72
2022/01/18 10:23:27;;;;;;;0.20;0.20;;;;;;;;;;5123884;28;20451;-72
2022/01/18 10:25:54;;;;;;;0.10;0.10;;;;;;;;;;5123580;28;20206;-72
2022/01/18 10:28:30;;;;;;;0.10;0.10;;;;;;;;;;5141202;27;20209;-71
2022/01/18 10:30:57;;;;;;;0.10;0.10;;;;;;;;;;5144481;27;20228;-72
2022/01/18 10:33:29;;;;;;;0.10;0.10;;;;;;;;;;5143991;27;20204;-72
2022/01/18 10:36:09;;;;;;;0.20;0.20;;;;;;;;;;5143951;27;20234;-72
2022/01/18 10:38:36;;;;;;;0.10;0.10;;;;;;;;;;5143797;27;20204;-72
2022/01/18 10:41:18;;;;;;;0.10;0.10;;;;;;;;;;5143654;27;20197;-73
2022/01/18 10:43:44;;;;;;;0.10;0.10;;;;;;;;;;5143458;27;20479;-73
2022/01/18 10:46:13;;;;;;;0.10;0.10;;;;;;;;;;5143778;27;20196;-72
2022/01/18 10:48:45;;;;;;;0.20;0.20;;;;;;;;;;5144500;27;20387;-73
2022/01/18 10:51:25;;;;;;;0.10;0.10;;;;;;;;;;5143966;27;20216;-72
2022/01/18 10:53:58;;;;;;;0.13;0.13;;;;;;;;;;5143630;27;20193;-71
2022/01/18 10:56:24;;;;;;;0.10;0.10;;;;;;;;;;5143929;27;20192;-71
2022/01/18 10:58:52;;;;;;;0.10;0.10;;;;;;;;;;5143720;27;20215;-71
2022/01/18 11:01:19;;;;;;;0.10;0.10;;;;;;;;;;5143635;27;20545;-72
2022/01/18 11:04:00;;;;;;;0.10;0.10;;;;;;;;;;5129674;27;20213;-71
2022/01/18 11:06:26;;;;;;;0.10;0.10;;;;;;;;;;5125749;28;20213;-71
2022/01/18 11:08:52;;;;;;;0.10;0.10;;;;;;;;;;5130269;28;20225;-71
2022/01/18 11:11:26;;;;;;;0.10;0.10;;;;;;;;;;5137617;27;20285;-72
2022/01/18 11:13:52;;;;;;;0.10;0.10;;;;;;;;;;5127513;27;20202;-72
2022/01/18 11:16:25;;;;;;;0.30;0.30;;;;;;;;;;5123158;28;20417;-72
2022/01/18 11:18:54;;;;;;;0.10;0.10;;;;;;;;;;5122799;28;20251;-72
2022/01/18 11:21:22;;;;;;;0.10;0.10;;;;;;;;;;5122729;28;20303;-71
2022/01/18 11:23:48;;;;;;;0.10;0.10;;;;;;;;;;5122881;28;20507;-72
2022/01/18 11:26:16;;;;;;;0.10;0.10;;;;;;;;;;5125352;28;20197;-72
2022/01/18 11:28:43;;;;;;;0.20;0.20;;;;;;;;;;5141881;28;20204;-73
2022/01/18 11:31:11;;;;;;;0.10;0.10;;;;;;;;;;5130727;27;20461;-72
2022/01/18 11:33:38;;;;;;;0.10;0.10;;;;;;;;;;5129508;28;20501;-73
2022/01/18 11:36:05;;;;;;;0.10;0.10;;;;;;;;;;5125475;28;20239;-72
2022/01/18 11:38:35;;;;;;;0.10;0.10;;;;;;;;;;5128340;28;20201;-72
2022/01/18 11:41:02;;;;;;;0.20;0.20;;;;;;;;;;5125489;28;20241;-73
2022/01/18 11:43:36;;;;;;;0.10;0.10;;;;;;;;;;5136320;27;20272;-71
2022/01/18 11:46:17;;;;;;;0.10;0.10;;;;;;;;;;5122535;28;20206;-72
2022/01/18 11:48:46;;;;;;;0.10;0.10;;;;;;;;;;5133228;28;20238;-72
2022/01/18 11:51:17;;;;;;;0.10;0.10;;;;;;;;;;5133735;27;20540;-73
2022/01/18 11:53:45;;;;;;;0.10;0.10;;;;;;;;;;5135513;27;20205;-72
2022/01/18 11:56:13;;;;;;;0.10;0.10;;;;;;;;;;5133511;27;20235;-70
2022/01/18 11:58:39;;;;;;;0.10;0.10;;;;;;;;;;5128418;27;20258;-71
2022/01/18 12:01:06;;;;;;;0.10;0.10;;;;;;;;;;5135404;27;20409;-70
2022/01/18 12:03:33;;;;;;;0.10;0.10;;;;;;;;;;5127441;27;20205;-71
2022/01/18 12:06:02;;;;;;;0.17;0.17;;;;;;;;;;5128808;27;20471;-71
2022/01/18 12:08:32;;;;;;;0.10;0.10;;;;;;;;;;5136887;27;20246;-72
2022/01/18 12:10:59;;;;;;;0.10;0.10;;;;;;;;;;5142861;27;20232;-71
2022/01/18 12:13:26;;;;;;;0.10;0.10;;;;;;;;;;5146462;27;20208;-71
2022/01/18 12:15:56;;;;;;;0.10;0.10;;;;;;;;;;5146473;27;20242;-72
2022/01/18 12:18:23;;;;;;;0.20;0.20;;;;;;;;;;5125942;27;20281;-71
2022/01/18 12:20:50;;;;;;;0.10;0.10;;;;;;;;;;5133480;27;20262;-72
2022/01/18 12:23:18;;;;;;;0.10;0.10;;;;;;;;;;5125645;27;20244;-71
2022/01/18 12:25:55;;;;;;;0.10;0.10;;;;;;;;;;5144346;27;20209;-71
2022/01/18 12:28:48;;;;;;;0.10;0.10;;;;;;;;;;5129241;27;20202;-70
2022/01/18 12:31:40;;;;;;;0.20;0.20;;;;;;;;;;5128094;27;20404;-72
2022/01/18 12:34:29;;;;;;;0.10;0.10;;;;;;;;;;5128794;27;20268;-71
2022/01/18 12:36:57;;;;;;;0.10;0.10;;;;;;;;;;5133411;27;20224;-71
2022/01/18 12:39:26;;;;;;;0.10;0.10;;;;;;;;;;5140786;27;20204;-72
2022/01/18 12:41:55;;;;;;;0.10;0.10;;;;;;;;;;5130035;27;20204;-73
2022/01/18 12:44:20;;;;;;;0.10;0.10;;;;;;;;;;5125488;27;20209;-72
2022/01/18 12:46:50;;;;;;;0.10;0.10;;;;;;;;;;5125480;28;20205;-71
2022/01/18 12:49:17;;;;;;;0.10;0.10;;;;;;;;;;5125308;28;20272;-72
2022/01/18 12:51:44;;;;;;;0.10;0.10;;;;;;;;;;5125285;28;20217;-73
2022/01/18 12:54:10;;;;;;;0.10;0.10;;;;;;;;;;5126164;27;20504;-72
2022/01/18 12:56:38;;;;;;;0.10;0.10;;;;;;;;;;5129904;27;20248;-73
2022/01/18 12:59:05;;;;;;;0.10;0.10;;;;;;;;;;5145591;27;20208;-73
2022/01/18 13:01:33;;;;;;;0.10;0.10;;;;;;;;;;5137541;27;20198;-74
2022/01/18 13:03:59;;;;;;;0.13;0.13;;;;;;;;;;5138854;27;20201;-73
2022/01/18 13:06:26;;;;;;;0.10;0.10;;;;;;;;;;5137063;27;20204;-73
2022/01/18 13:08:54;;;;;;;0.10;0.10;;;;;;;;;;5125864;27;20529;-74
2022/01/18 13:11:21;;;;;;;0.10;0.10;;;;;;;;;;5127054;27;20224;-72
2022/01/18 13:13:56;;;;;;;0.10;0.10;;;;;;;;;;5124836;28;20544;-74
2022/01/18 13:25:01;;;;;;;0.10;0.10;;;;;;;;;;5138822;27;20395;-73
2022/01/18 13:27:32;;;;;;;0.10;0.10;;;;;;;;;;5135079;27;20213;-72
2022/01/18 13:30:13;;;;;;;0.10;0.10;;;;;;;;;;5124613;28;20193;-71
2022/01/18 13:32:39;;;;;;;0.10;0.10;;;;;;;;;;5128595;27;20372;-72
2022/01/18 13:35:07;;;;;;;0.10;0.10;;;;;;;;;;5131932;27;20216;-74
2022/01/18 13:37:34;;;;;;;0.10;0.10;;;;;;;;;;5130366;27;20222;-72
2022/01/18 13:40:02;;;;;;;0.10;0.10;;;;;;;;;;5134495;27;20201;-72
2022/01/18 13:42:34;;;;;;;0.10;0.10;;;;;;;;;;5137187;27;20205;-72
2022/01/18 13:45:07;;;;;;;0.20;0.20;;;;;;;;;;5130436;27;20197;-73
2022/01/18 13:47:38;;;;;;;0.10;0.10;;;;;;;;;;5127511;27;20220;-71
2022/01/18 13:50:05;;;;;;;0.10;0.10;;;;;;;;;;5129850;27;20264;-73
2022/01/18 13:52:32;;;;;;;0.10;0.10;;;;;;;;;;5135604;27;20231;-73
2022/01/18 13:54:58;;;;;;;0.10;0.10;;;;;;;;;;5124798;28;20197;-73
2022/01/18 13:57:24;;;;;;;0.10;0.10;;;;;;;;;;5133490;27;20208;-73
2022/01/18 13:59:52;;;;;;;0.10;0.10;;;;;;;;;;5144323;27;20204;-72
2022/01/18 14:02:19;;;;;;;0.10;0.10;;;;;;;;;;5135606;27;20201;-72
2022/01/18 14:04:48;;;;;;;0.20;0.20;;;;;;;;;;5129609;27;20244;-73
2022/01/18 14:07:15;;;;;;;0.20;0.20;;;;;;;;;;5123585;28;20209;-73
2022/01/18 14:09:41;;;;;;;0.10;0.10;;;;;;;;;;5144044;27;20236;-72
2022/01/18 14:12:14;;;;;;;0.20;0.20;;;;;;;;;;5144393;27;20228;-72
2022/01/18 14:14:42;;;;;;;0.10;0.10;;;;;;;;;;5135461;27;20204;-72
2022/01/18 14:17:13;;;;;;;0.20;0.20;;;;;;;;;;5131959;27;20241;-72
2022/01/18 14:19:40;;;;;;;0.10;0.10;;;;;;;;;;5132257;27;20284;-74
2022/01/18 14:22:14;;;;;;;0.10;0.10;;;;;;;;;;5144016;27;20449;-73
2022/01/18 14:24:41;;;;;;;0.10;0.10;;;;;;;;;;5144229;27;20180;-72
2022/01/18 14:27:09;;;;;;;0.20;0.20;;;;;;;;;;5136289;27;20201;-73
2022/01/18 14:29:55;;;;;;;0.20;0.20;;;;;;;;;;5123533;28;20270;-72
2022/01/18 14:32:29;;;;;;;0.10;0.10;;;;;;;;;;5123403;28;20246;-73
2022/01/18 14:34:57;;;;;;;0.10;0.10;;;;;;;;;;5124834;27;20205;-74
2022/01/18 14:37:39;;;;;;;0.10;0.10;;;;;;;;;;5139319;27;20212;-73
2022/01/18 14:40:07;;;;;;;0.10;0.10;;;;;;;;;;5143716;27;20226;-73
2022/01/18 14:42:40;;;;;;;0.10;0.10;;;;;;;;;;5143996;27;20268;-72
2022/01/18 14:45:19;;;;;;;0.20;0.20;;;;;;;;;;5129545;27;20215;-73
2022/01/18 14:47:46;;;;;;;0.10;0.10;;;;;;;;;;5123083;27;20208;-74
2022/01/18 14:50:13;;;;;;;0.53;0.53;;;;;;;;;;5126167;28;20246;-74
2022/01/18 14:52:41;;;;;;;0.10;0.10;;;;;;;;;;5129538;27;20534;-74
2022/01/18 14:55:08;;;;;;;0.10;0.10;;;;;;;;;;5125803;27;20201;-73
2022/01/18 14:57:35;;;;;;;0.10;0.10;;;;;;;;;;5128046;27;20200;-73
2022/01/18 15:00:02;;;;;;;0.10;0.10;;;;;;;;;;5129568;28;20225;-74
2022/01/18 15:02:30;;;;;;;0.10;0.10;;;;;;;;;;5142660;28;20204;-73
2022/01/18 15:04:56;;;;;;;0.10;0.10;;;;;;;;;;5140992;27;20201;-73
2022/01/18 15:07:23;;;;;;;0.10;0.10;;;;;;;;;;5128069;28;20194;-74
2022/01/18 15:09:51;;;;;;;0.10;0.10;;;;;;;;;;5122857;28;20282;-74
2022/01/18 15:12:17;;;;;;;0.10;0.10;;;;;;;;;;5123179;28;20259;-73
2022/01/18 15:14:43;;;;;;;5.80;5.30;;;;;;;;;;5122788;28;20210;-74
2022/01/18 15:17:09;;;;;;;0.10;0.10;;;;;;;;;;5122674;28;20209;-74
2022/01/18 15:19:37;;;;;;;0.10;0.10;;;;;;;;;;5125234;28;20194;-75
2022/01/18 15:22:05;;;;;;;0.10;0.10;;;;;;;;;;5123112;28;20264;-74
2022/01/18 15:24:31;;;;;;;0.10;0.10;;;;;;;;;;5127389;27;20271;-74
2022/01/18 15:26:59;;;;;;;0.10;0.10;;;;;;;;;;5138602;27;20245;-73
2022/01/18 15:29:26;;;;;;;0.20;0.20;;;;;;;;;;5147570;27;20216;-75
2022/01/18 15:31:52;;;;;;;0.10;0.10;;;;;;;;;;5147314;27;20201;-73
2022/01/18 15:34:18;;;;;;;0.10;0.10;;;;;;;;;;5147521;27;20202;-73
2022/01/18 15:36:44;;;;;;;0.10;0.10;;;;;;;;;;5147086;27;20553;-73
2022/01/18 15:39:11;;;;;;;0.10;0.10;;;;;;;;;;5147277;27;20242;-74
2022/01/18 15:41:38;;;;;;;0.10;0.10;;;;;;;;;;5142949;27;20217;-73
2022/01/18 15:44:08;;;;;;;0.10;0.10;;;;;;;;;;5126697;28;20215;-74
2022/01/18 15:46:34;;;;;;;0.10;0.10;;;;;;;;;;5132060;27;20208;-73
2022/01/18 15:49:01;;;;;;;0.10;0.10;;;;;;;;;;5146576;27;20265;-75